GAP2967 RPLL-RPME
Flight info
| Callsign | GAP2967 |
|---|---|
| Flight time | N/A |
| Altitude | 37000 |
| Route | IPATA2R IPATA B462 TAC W9 BANWA DCT ROLEX TACL2B |
| Aircraft | A320/M-SDE3FGHIRWY/LB1 |
Departure
| Time | N/A |
|---|---|
| Airport | Ninoy Aquino International Airport (RPLL) |
Arrival
| Time | 2026-04-30 17:57 |
|---|---|
| Airport | Bancasi Airport (RPME) |
| Time | Latitude | Longitude | Altitude | Speed | Heading |
|---|---|---|---|---|---|
| 2026-04-30 17:39 | 9.41321 | 125.41621 | 7066 ft | 240 kts | 187° |
| 2026-04-30 17:41 | 9.28377 | 125.38935 | 4913 ft | 233 kts | 187° |
| 2026-04-30 17:42 | 9.25193 | 125.38274 | 4385 ft | 232 kts | 187° |
| 2026-04-30 17:42 | 9.20453 | 125.37292 | 3603 ft | 229 kts | 188° |
| 2026-04-30 17:43 | 9.17389 | 125.37033 | 3454 ft | 215 kts | 151° |
| 2026-04-30 17:44 | 9.14761 | 125.40511 | 3473 ft | 209 kts | 119° |
| 2026-04-30 17:44 | 9.12326 | 125.44196 | 3463 ft | 209 kts | 122° |
| 2026-04-30 17:46 | 9.08107 | 125.50188 | 3459 ft | 209 kts | 123° |
| 2026-04-30 17:47 | 9.04703 | 125.54974 | 3469 ft | 208 kts | 122° |
| 2026-04-30 17:48 | 9.01184 | 125.59919 | 3475 ft | 211 kts | 123° |
| 2026-04-30 17:48 | 8.98584 | 125.63569 | 3465 ft | 196 kts | 122° |
| 2026-04-30 17:49 | 8.95451 | 125.67974 | 3484 ft | 191 kts | 123° |
| 2026-04-30 17:50 | 8.91292 | 125.71080 | 3508 ft | 222 kts | 188° |
| 2026-04-30 17:51 | 8.86955 | 125.68975 | 3480 ft | 226 kts | 210° |
| 2026-04-30 17:52 | 8.86488 | 125.65116 | 3107 ft | 181 kts | 302° |
| 2026-04-30 17:53 | 8.89061 | 125.60270 | 2533 ft | 146 kts | 300° |
| 2026-04-30 17:54 | 8.90845 | 125.56663 | 1779 ft | 140 kts | 300° |
| 2026-04-30 17:55 | 8.92573 | 125.53150 | 1034 ft | 138 kts | 300° |
| 2026-04-30 17:56 | 8.94253 | 125.49709 | 298 ft | 134 kts | 298° |
| 2026-04-30 17:57 | 8.95258 | 125.47669 | 40 ft | 14 kts | 306° |
| 2026-04-30 17:58 | 8.95254 | 125.47660 | 40 ft | 3 kts | 115° |
| 2026-04-30 17:59 | 8.95132 | 125.47920 | 44 ft | 17 kts | 115° |
| 2026-04-30 18:00 | 8.94944 | 125.48299 | 54 ft | 4 kts | 133° |
| 2026-04-30 18:00 | 8.94895 | 125.48208 | 53 ft | 4 kts | 254° |
| 2026-04-30 18:01 | 8.94867 | 125.48158 | 51 ft | 0 kts | 236° |